createdAt,value
2023-04-20T00:01:05.235Z,12.32
2023-04-20T00:03:35.581Z,12.28
2023-04-20T00:06:04.326Z,12.27
2023-04-20T00:08:32.423Z,12.28
2023-04-20T00:11:00.767Z,12.27
2023-04-20T00:13:28.995Z,12.29
2023-04-20T00:15:57.036Z,12.30
2023-04-20T00:18:25.228Z,12.30
2023-04-20T00:20:53.345Z,12.30
2023-04-20T00:23:21.421Z,12.29
2023-04-20T00:25:49.823Z,12.28
2023-04-20T00:28:17.919Z,12.28
2023-04-20T00:30:46.149Z,12.27
2023-04-20T00:33:14.418Z,12.26
2023-04-20T00:35:43.505Z,12.25
2023-04-20T00:38:11.644Z,12.25
2023-04-20T00:40:39.753Z,12.34
2023-04-20T00:43:11.701Z,12.29
2023-04-20T00:45:39.752Z,12.27
2023-04-20T00:48:08.103Z,12.27
2023-04-20T00:50:36.191Z,12.26
2023-04-20T00:53:04.326Z,12.26
2023-04-20T00:55:32.406Z,12.26
2023-04-20T00:58:00.626Z,12.25
2023-04-20T01:00:28.776Z,12.25
2023-04-20T01:02:57.293Z,12.24
2023-04-20T01:05:25.897Z,12.24
2023-04-20T01:07:54.049Z,12.23
2023-04-20T01:10:22.361Z,12.22
2023-04-20T01:12:50.533Z,12.21
2023-04-20T01:15:18.615Z,12.20
2023-04-20T01:17:47.829Z,12.20
2023-04-20T01:20:16.278Z,12.19
2023-04-20T01:22:48.232Z,12.18
2023-04-20T01:25:17.193Z,12.17
2023-04-20T01:27:45.590Z,12.17
2023-04-20T01:30:13.818Z,12.17
2023-04-20T01:32:42.020Z,12.16
2023-04-20T01:35:10.911Z,12.17
2023-04-20T01:37:40.111Z,12.17
2023-04-20T01:40:12.320Z,12.16
2023-04-20T01:42:41.096Z,12.14
2023-04-20T01:45:09.485Z,12.14
2023-04-20T01:47:38.152Z,12.13
2023-04-20T01:50:08.518Z,12.12
2023-04-20T01:52:37.031Z,12.13
2023-04-20T01:55:06.210Z,12.12
2023-04-20T01:57:34.621Z,12.13
2023-04-20T02:00:04.251Z,12.13
2023-04-20T02:02:42.899Z,12.12
2023-04-20T02:05:11.202Z,12.13
2023-04-20T02:07:39.338Z,12.12
2023-04-20T02:10:08.482Z,12.10
2023-04-20T02:12:36.765Z,12.08
2023-04-20T02:15:06.926Z,12.08
2023-04-20T02:17:36.870Z,12.08
2023-04-20T02:20:11.486Z,12.08
2023-04-20T02:22:40.078Z,12.06
2023-04-20T02:25:10.540Z,12.06
2023-04-20T02:27:39.233Z,12.06
2023-04-20T02:30:08.493Z,12.07
2023-04-20T02:32:37.415Z,12.07
2023-04-20T02:35:05.868Z,12.07
2023-04-20T02:37:34.158Z,12.07
2023-04-20T02:40:02.781Z,12.06
2023-04-20T02:42:31.144Z,12.05
2023-04-20T02:44:59.981Z,12.04
2023-04-20T02:47:28.164Z,12.03
2023-04-20T02:49:56.208Z,12.03
2023-04-20T02:52:24.782Z,12.01
2023-04-20T02:54:53.269Z,11.96
2023-04-20T02:57:21.397Z,11.93
2023-04-20T02:59:49.962Z,11.90
2023-04-20T03:02:28.492Z,11.89
2023-04-20T03:04:57.047Z,11.88
2023-04-20T03:07:26.343Z,11.89
2023-04-20T03:09:54.721Z,11.89
2023-04-20T03:12:23.072Z,11.91
2023-04-20T03:14:59.780Z,11.92
2023-04-20T03:17:39.878Z,11.93
2023-04-20T03:20:09.266Z,11.93
2023-04-20T03:22:37.923Z,11.95
2023-04-20T03:25:07.833Z,11.96
2023-04-20T03:28:05.327Z,11.97
2023-04-20T03:30:33.652Z,11.97
2023-04-20T03:33:08.621Z,12.05
2023-04-20T03:35:39.875Z,12.00
2023-04-20T03:38:07.999Z,11.99
2023-04-20T03:40:36.501Z,12.02
2023-04-20T03:43:05.957Z,12.09
2023-04-20T03:45:34.102Z,12.15
2023-04-20T03:48:02.394Z,12.18
2023-04-20T03:50:31.268Z,12.20
2023-04-20T03:52:59.628Z,12.19
2023-04-20T03:55:28.129Z,12.18
2023-04-20T03:58:00.676Z,12.14
2023-04-20T04:00:31.116Z,12.07
2023-04-20T04:03:02.283Z,12.01
2023-04-20T04:05:30.772Z,11.96
2023-04-20T04:07:58.991Z,11.92
2023-04-20T04:10:27.136Z,11.87
2023-04-20T04:12:55.278Z,11.84
2023-04-20T04:15:23.845Z,11.81
2023-04-20T04:18:00.836Z,11.80
2023-04-20T04:20:29.717Z,11.78
2023-04-20T04:22:58.424Z,11.73
2023-04-20T04:25:47.006Z,11.67
2023-04-20T04:28:15.560Z,11.61
2023-04-20T04:30:49.776Z,11.56
2023-04-20T04:33:19.170Z,11.50
2023-04-20T04:35:48.777Z,11.48
2023-04-20T04:38:17.579Z,11.51
2023-04-20T04:40:47.843Z,11.54
2023-04-20T04:43:16.141Z,11.57
2023-04-20T04:45:53.756Z,11.54
2023-04-20T04:48:21.854Z,11.51
2023-04-20T04:50:49.903Z,11.52
2023-04-20T04:53:18.203Z,11.48
2023-04-20T04:55:46.621Z,11.47
2023-04-20T04:58:15.347Z,11.48
2023-04-20T05:00:43.868Z,11.52
2023-04-20T05:03:12.069Z,11.56
2023-04-20T05:05:40.301Z,11.58
2023-04-20T05:08:08.425Z,11.55
2023-04-20T05:10:36.644Z,11.48
2023-04-20T05:13:04.799Z,11.43
2023-04-20T05:15:33.304Z,11.47
2023-04-20T05:18:02.392Z,11.39
2023-04-20T05:20:30.477Z,11.32
2023-04-20T05:22:58.653Z,11.28
2023-04-20T05:25:26.812Z,11.25
2023-04-20T05:27:55.132Z,11.21
2023-04-20T05:30:23.370Z,11.24
2023-04-20T05:32:52.481Z,11.25
2023-04-20T05:35:21.598Z,11.24
2023-04-20T05:37:49.892Z,11.20
2023-04-20T05:40:17.909Z,11.11
2023-04-20T05:42:46.156Z,11.10
2023-04-20T05:45:14.187Z,11.13
2023-04-20T05:47:42.382Z,11.08
2023-04-20T05:50:10.985Z,11.01
2023-04-20T05:52:39.114Z,10.98
2023-04-20T05:55:07.637Z,10.97
2023-04-20T05:57:42.749Z,10.97
2023-04-20T06:00:14.561Z,10.97
2023-04-20T06:02:43.278Z,10.97
2023-04-20T06:05:11.727Z,11.01
2023-04-20T06:07:40.457Z,11.06
2023-04-20T06:10:09.024Z,11.04
2023-04-20T06:12:37.462Z,11.01
2023-04-20T06:15:10.960Z,10.97
2023-04-20T06:17:41.090Z,11.05
2023-04-20T06:20:10.617Z,11.16
2023-04-20T06:22:45.626Z,11.15
2023-04-20T06:25:13.956Z,11.17
2023-04-20T06:27:42.462Z,11.26
2023-04-20T06:30:11.257Z,11.35
2023-04-20T06:32:39.799Z,11.35
2023-04-20T06:35:08.728Z,11.29
2023-04-20T06:37:37.224Z,11.32
2023-04-20T06:40:08.509Z,11.38
2023-04-20T06:42:37.664Z,11.39
2023-04-20T06:45:06.699Z,11.42
2023-04-20T06:47:35.030Z,11.47
2023-04-20T06:50:05.064Z,11.55
2023-04-20T06:52:33.522Z,11.62
2023-04-20T06:55:01.659Z,11.68
2023-04-20T06:57:29.862Z,11.73
2023-04-20T06:59:59.270Z,11.78
2023-04-20T07:02:27.729Z,11.90
2023-04-20T07:05:01.770Z,12.01
2023-04-20T07:07:30.093Z,12.08
2023-04-20T07:09:59.015Z,12.11
2023-04-20T07:12:27.332Z,12.15
2023-04-20T07:14:55.769Z,12.16
2023-04-20T07:17:27.333Z,12.19
2023-04-20T07:19:56.462Z,12.26
2023-04-20T07:22:25.210Z,12.30
2023-04-20T07:24:53.281Z,12.31
2023-04-20T07:27:21.384Z,12.30
2023-04-20T07:29:49.392Z,12.25
2023-04-20T07:32:17.482Z,12.29
2023-04-20T07:34:45.777Z,12.32
2023-04-20T07:37:13.931Z,12.40
2023-04-20T07:39:42.224Z,12.40
2023-04-20T07:42:10.262Z,12.32
2023-04-20T07:44:38.567Z,12.30
2023-04-20T07:47:06.612Z,12.28
2023-04-20T07:49:38.485Z,12.36
2023-04-20T07:52:16.514Z,12.40
2023-04-20T07:54:45.801Z,12.39
2023-04-20T07:57:14.086Z,12.36
2023-04-20T07:59:42.320Z,12.33
2023-04-20T08:02:11.056Z,12.44
2023-04-20T08:04:39.875Z,12.46
2023-04-20T08:07:08.427Z,12.33
2023-04-20T08:09:37.138Z,12.32
2023-04-20T08:12:05.641Z,12.32
2023-04-20T08:14:34.265Z,12.35
2023-04-20T08:17:02.442Z,12.28
2023-04-20T08:19:30.570Z,12.26
2023-04-20T08:21:59.068Z,12.25
2023-04-20T08:24:28.239Z,12.27
2023-04-20T08:26:56.749Z,12.31
2023-04-20T08:29:26.146Z,12.31
2023-04-20T08:31:54.456Z,12.27
2023-04-20T08:34:22.559Z,12.23
2023-04-20T08:36:51.105Z,12.22
2023-04-20T08:39:20.715Z,12.21
2023-04-20T08:41:53.743Z,12.23
2023-04-20T08:44:22.400Z,12.29
2023-04-20T08:46:50.745Z,12.30
2023-04-20T08:49:19.472Z,12.31
2023-04-20T08:51:48.012Z,12.30
2023-04-20T08:54:16.718Z,12.18
2023-04-20T08:56:46.031Z,12.07
2023-04-20T08:59:14.922Z,12.06
2023-04-20T09:01:43.402Z,12.09
2023-04-20T09:04:27.872Z,12.09
2023-04-20T09:06:56.552Z,12.08
2023-04-20T09:09:25.729Z,12.06
2023-04-20T09:12:04.086Z,12.07
2023-04-20T09:14:42.594Z,12.14
2023-04-20T09:17:14.545Z,12.17
2023-04-20T09:19:45.992Z,12.18
2023-04-20T09:22:13.977Z,12.19
2023-04-20T09:24:42.922Z,12.17
2023-04-20T09:27:17.973Z,12.19
2023-04-20T09:29:57.806Z,12.23
2023-04-20T09:45:00.767Z,12.35
2023-04-20T09:47:30.078Z,12.74
2023-04-20T09:50:00.120Z,12.72
2023-04-20T09:52:30.656Z,12.74
2023-04-20T09:54:59.121Z,12.78
2023-04-20T09:57:27.224Z,12.78
2023-04-20T09:59:55.953Z,12.75
2023-04-20T10:02:24.119Z,12.72
2023-04-20T10:04:55.854Z,12.69
2023-04-20T10:07:27.803Z,12.68
2023-04-20T10:10:06.476Z,12.69
2023-04-20T10:12:37.092Z,12.72
2023-04-20T10:15:05.485Z,12.70
2023-04-20T10:17:35.159Z,12.69
2023-04-20T10:20:04.848Z,12.64
2023-04-20T10:22:33.765Z,12.57
2023-04-20T10:25:02.947Z,12.57
2023-04-20T10:27:32.600Z,12.58
2023-04-20T10:30:11.074Z,12.57
2023-04-20T10:32:39.282Z,12.56
2023-04-20T10:35:10.553Z,12.51
2023-04-20T10:37:51.676Z,12.45
2023-04-20T10:40:27.199Z,12.42
2023-04-20T10:42:55.537Z,12.46
2023-04-20T10:45:37.130Z,12.48
2023-04-20T10:48:09.753Z,12.48
2023-04-20T10:50:37.941Z,12.47
2023-04-20T10:53:06.250Z,12.48
2023-04-20T10:55:34.937Z,12.49
2023-04-20T10:58:03.018Z,12.53
2023-04-20T11:00:31.250Z,12.60
2023-04-20T11:02:59.532Z,12.63
2023-04-20T11:05:27.973Z,12.61
2023-04-20T11:08:00.250Z,12.59
2023-04-20T11:10:39.000Z,12.57
2023-04-20T11:13:07.563Z,12.57
2023-04-20T11:15:36.363Z,12.53
2023-04-20T11:18:08.305Z,12.46
2023-04-20T11:20:36.612Z,12.39
2023-04-20T11:23:06.077Z,12.37
2023-04-20T11:25:34.714Z,12.37
2023-04-20T11:28:09.296Z,12.36
2023-04-20T11:30:41.570Z,12.34
2023-04-20T11:33:10.362Z,12.31
2023-04-20T11:35:40.194Z,12.29
2023-04-20T11:38:08.435Z,12.31
2023-04-20T11:40:36.732Z,12.31
2023-04-20T11:43:05.085Z,12.30
2023-04-20T11:45:36.739Z,12.27
2023-04-20T11:48:06.179Z,12.26
2023-04-20T11:50:34.489Z,12.35
2023-04-20T11:53:02.680Z,12.36
2023-04-20T11:55:31.216Z,12.36
2023-04-20T11:57:59.386Z,12.37
2023-04-20T12:00:27.612Z,12.38
2023-04-20T12:02:55.827Z,12.39
2023-04-20T12:05:24.125Z,12.41
2023-04-20T12:07:52.392Z,12.42
2023-04-20T12:10:20.556Z,12.49
2023-04-20T12:12:49.364Z,12.56
2023-04-20T12:15:17.509Z,12.59
2023-04-20T12:17:45.873Z,12.61
2023-04-20T12:20:14.431Z,12.64
2023-04-20T12:22:42.780Z,12.67
2023-04-20T12:25:11.194Z,12.69
2023-04-20T12:27:39.607Z,12.72
2023-04-20T12:30:09.564Z,12.73
2023-04-20T12:32:39.781Z,12.74
2023-04-20T12:35:08.672Z,12.74
2023-04-20T12:37:36.971Z,12.77
2023-04-20T12:40:06.543Z,12.84
2023-04-20T12:42:35.349Z,12.91
2023-04-20T12:45:03.826Z,12.94
2023-04-20T12:47:32.047Z,12.95
2023-04-20T12:50:00.178Z,12.96
2023-04-20T12:52:29.305Z,12.97
2023-04-20T12:54:57.811Z,12.98
2023-04-20T12:57:25.982Z,12.99
2023-04-20T12:59:54.701Z,12.98
2023-04-20T13:02:22.900Z,12.97
2023-04-20T13:04:52.610Z,12.95
2023-04-20T13:07:20.791Z,12.93
2023-04-20T13:09:48.991Z,12.93
2023-04-20T13:12:17.595Z,12.94
2023-04-20T13:14:46.009Z,12.98
2023-04-20T13:17:14.050Z,12.97
2023-04-20T13:19:42.100Z,12.95
2023-04-20T13:22:11.822Z,12.94
2023-04-20T13:24:41.442Z,12.90
2023-04-20T13:27:09.610Z,12.86
2023-04-20T13:29:38.602Z,12.82
2023-04-20T13:32:06.948Z,12.78
2023-04-20T13:34:35.403Z,12.75
2023-04-20T13:37:03.685Z,12.73
2023-04-20T13:39:31.779Z,12.72
2023-04-20T13:41:59.804Z,12.72
2023-04-20T13:44:28.016Z,12.72
2023-04-20T13:46:56.556Z,12.73
2023-04-20T13:49:24.779Z,12.74
2023-04-20T13:51:53.056Z,12.75
2023-04-20T13:54:21.282Z,12.77
2023-04-20T13:56:49.429Z,12.79
2023-04-20T13:59:17.500Z,12.82
2023-04-20T14:01:45.989Z,12.85
2023-04-20T14:04:16.887Z,12.88
2023-04-20T14:06:45.419Z,12.91
2023-04-20T14:09:13.456Z,12.92
2023-04-20T14:11:43.628Z,12.93
2023-04-20T14:14:12.153Z,12.94
2023-04-20T14:16:45.078Z,12.94
2023-04-20T14:19:13.755Z,12.98
2023-04-20T14:21:44.251Z,13.01
2023-04-20T14:24:12.333Z,13.05
2023-04-20T14:26:40.518Z,13.08
2023-04-20T14:29:08.551Z,13.12
2023-04-20T14:31:37.358Z,13.14
2023-04-20T14:34:05.702Z,13.15
2023-04-20T14:36:34.965Z,13.16
2023-04-20T14:39:03.455Z,13.17
2023-04-20T14:41:34.224Z,13.18
2023-04-20T14:44:02.452Z,13.20
2023-04-20T14:46:30.720Z,13.21
2023-04-20T14:48:58.854Z,13.23
2023-04-20T14:51:27.183Z,13.24
2023-04-20T14:53:55.428Z,13.23
2023-04-20T14:56:23.693Z,13.23
2023-04-20T14:58:52.411Z,13.23
2023-04-20T15:01:21.495Z,13.24
2023-04-20T15:03:49.760Z,13.26
2023-04-20T15:06:17.991Z,13.28
2023-04-20T15:08:46.682Z,13.29
2023-04-20T15:11:14.871Z,13.30
2023-04-20T15:13:43.793Z,13.31
2023-04-20T15:16:12.176Z,13.33
2023-04-20T15:18:40.412Z,13.35
2023-04-20T15:21:08.799Z,13.38
2023-04-20T15:23:37.088Z,13.38
2023-04-20T15:26:07.006Z,13.39
2023-04-20T15:28:35.215Z,13.41
2023-04-20T15:31:03.360Z,13.42
2023-04-20T15:33:31.682Z,13.46
2023-04-20T15:35:59.722Z,13.49
2023-04-20T15:38:27.857Z,13.51
2023-04-20T15:40:55.863Z,13.52
2023-04-20T15:43:24.068Z,13.55
2023-04-20T15:45:52.399Z,13.57
2023-04-20T15:48:21.061Z,13.58
2023-04-20T15:50:52.524Z,13.59
2023-04-20T15:53:22.291Z,13.59
2023-04-20T15:55:50.359Z,13.58
2023-04-20T15:58:18.428Z,13.59
2023-04-20T16:00:46.480Z,13.60
2023-04-20T16:03:14.731Z,13.60
2023-04-20T16:05:43.060Z,13.60
2023-04-20T16:08:11.234Z,13.58
2023-04-20T16:10:39.368Z,13.58
2023-04-20T16:13:07.700Z,13.61
2023-04-20T16:15:35.994Z,13.61
2023-04-20T16:18:05.470Z,13.61
2023-04-20T16:20:33.716Z,13.61
2023-04-20T16:23:01.786Z,13.63
2023-04-20T16:25:29.904Z,13.64
2023-04-20T16:27:58.135Z,13.65
2023-04-20T16:30:26.301Z,13.66
2023-04-20T16:32:54.448Z,13.67
2023-04-20T16:35:22.642Z,13.68
2023-04-20T16:37:51.463Z,13.69
2023-04-20T16:40:21.120Z,13.70
2023-04-20T16:42:49.212Z,13.70
2023-04-20T16:45:17.424Z,13.70
2023-04-20T16:47:46.328Z,13.71
2023-04-20T16:50:19.716Z,13.72
2023-04-20T16:52:49.248Z,13.72
2023-04-20T16:55:17.302Z,13.72
2023-04-20T16:57:45.380Z,13.70
2023-04-20T17:00:14.332Z,13.67
2023-04-20T17:02:42.753Z,13.64
2023-04-20T17:05:11.108Z,13.60
2023-04-20T17:07:40.186Z,13.55
2023-04-20T17:10:08.438Z,13.52
2023-04-20T17:12:36.673Z,13.48
2023-04-20T17:15:05.073Z,13.50
2023-04-20T17:17:34.216Z,13.55
2023-04-20T17:20:02.422Z,13.59
2023-04-20T17:22:31.317Z,13.62
2023-04-20T17:25:00.581Z,13.61
2023-04-20T17:27:28.876Z,13.58
2023-04-20T17:29:57.708Z,13.54
2023-04-20T17:32:26.879Z,13.50
2023-04-20T17:34:54.990Z,13.45
2023-04-20T17:37:23.390Z,13.39
2023-04-20T17:39:51.407Z,13.35
2023-04-20T17:42:19.536Z,13.31
2023-04-20T17:44:47.554Z,13.27
2023-04-20T17:47:15.744Z,13.21
2023-04-20T17:49:44.038Z,13.15
2023-04-20T17:52:15.282Z,13.11
2023-04-20T17:54:43.486Z,13.06
2023-04-20T17:57:11.701Z,13.00
2023-04-20T17:59:42.354Z,12.94
2023-04-20T18:02:12.004Z,12.91
2023-04-20T18:04:40.549Z,12.89
2023-04-20T18:07:09.035Z,12.92
2023-04-20T18:09:38.965Z,12.94
2023-04-20T18:12:08.706Z,12.93
2023-04-20T18:14:37.547Z,12.89
2023-04-20T18:17:05.669Z,12.87
2023-04-20T18:19:33.900Z,12.86
2023-04-20T18:22:01.980Z,12.83
2023-04-20T18:24:30.137Z,12.79
2023-04-20T18:26:58.274Z,12.75
2023-04-20T18:29:26.317Z,12.69
2023-04-20T18:31:56.221Z,12.60
2023-04-20T18:34:25.367Z,12.53
2023-04-20T18:36:53.576Z,12.48
2023-04-20T18:39:21.677Z,12.45
2023-04-20T18:41:49.820Z,12.41
2023-04-20T18:44:18.122Z,12.39
2023-04-20T18:46:46.653Z,12.37
2023-04-20T18:49:14.898Z,12.34
2023-04-20T18:51:43.264Z,12.30
2023-04-20T18:54:11.432Z,12.27
2023-04-20T18:56:39.817Z,12.23
2023-04-20T18:59:09.096Z,12.20
2023-04-20T19:01:40.752Z,12.17
2023-04-20T19:04:09.237Z,12.15
2023-04-20T19:06:39.083Z,12.13
2023-04-20T19:09:08.386Z,12.12
2023-04-20T19:11:36.649Z,12.11
2023-04-20T19:14:04.753Z,12.09
2023-04-20T19:16:33.356Z,12.06
2023-04-20T19:19:01.518Z,12.06
2023-04-20T19:21:30.083Z,12.05
2023-04-20T19:23:58.231Z,12.08
2023-04-20T19:26:26.190Z,12.14
2023-04-20T19:28:54.287Z,12.17
2023-04-20T19:31:22.371Z,12.17
2023-04-20T19:33:50.404Z,12.17
2023-04-20T19:36:19.228Z,12.18
2023-04-20T19:38:47.273Z,12.18
2023-04-20T19:41:15.483Z,12.16
2023-04-20T19:43:43.508Z,12.14
2023-04-20T19:46:11.804Z,12.10
2023-04-20T19:48:39.945Z,12.07
2023-04-20T19:51:08.016Z,12.05
2023-04-20T19:53:37.342Z,12.01
2023-04-20T19:56:06.727Z,11.99
2023-04-20T19:58:34.993Z,11.98
2023-04-20T20:01:03.820Z,11.97
2023-04-20T20:03:32.767Z,11.95
2023-04-20T20:06:01.131Z,11.95
2023-04-20T20:08:30.160Z,11.93
2023-04-20T20:10:58.247Z,11.91
2023-04-20T20:13:26.467Z,11.89
2023-04-20T20:15:54.638Z,11.87
2023-04-20T20:18:23.479Z,11.86
2023-04-20T20:20:51.603Z,11.85
2023-04-20T20:23:19.687Z,11.88
2023-04-20T20:25:47.687Z,11.96
2023-04-20T20:28:17.239Z,12.04
2023-04-20T20:30:45.530Z,12.10
2023-04-20T20:33:13.882Z,12.13
2023-04-20T20:35:42.587Z,12.14
2023-04-20T20:38:11.093Z,12.14
2023-04-20T20:40:39.969Z,12.13
2023-04-20T20:43:08.703Z,12.10
2023-04-20T20:45:37.340Z,12.05
2023-04-20T20:48:05.651Z,12.02
2023-04-20T20:50:33.913Z,11.98
2023-04-20T20:53:02.256Z,11.93
2023-04-20T20:55:30.519Z,11.87
2023-04-20T20:57:58.534Z,11.80
2023-04-20T21:00:27.156Z,11.73
2023-04-20T21:02:57.208Z,11.68
2023-04-20T21:05:25.489Z,11.64
2023-04-20T21:07:53.596Z,11.59
2023-04-20T21:10:21.718Z,11.56
2023-04-20T21:12:49.733Z,11.58
2023-04-20T21:15:17.965Z,11.63
2023-04-20T21:17:46.166Z,11.66
2023-04-20T21:20:14.394Z,11.65
2023-04-20T21:22:43.211Z,11.65
2023-04-20T21:25:11.258Z,11.63
2023-04-20T21:27:39.768Z,11.59
2023-04-20T21:30:08.641Z,11.56
2023-04-20T21:32:37.343Z,11.51
2023-04-20T21:35:06.172Z,11.45
2023-04-20T21:37:34.302Z,11.39
2023-04-20T21:40:02.352Z,11.34
2023-04-20T21:42:30.674Z,11.30
2023-04-20T21:44:58.720Z,11.33
2023-04-20T21:47:26.817Z,11.38
2023-04-20T21:52:24.924Z,11.27
2023-04-20T21:54:53.123Z,11.45
2023-04-20T21:57:21.447Z,11.41
2023-04-20T21:59:49.593Z,11.38
2023-04-20T22:02:17.978Z,11.35
2023-04-20T22:04:46.828Z,11.32
2023-04-20T22:07:17.874Z,11.28
2023-04-20T22:09:45.984Z,11.22
2023-04-20T22:12:14.070Z,11.17
2023-04-20T22:14:42.111Z,11.12
2023-04-20T22:17:11.946Z,11.07
2023-04-20T22:19:40.437Z,11.02
2023-04-20T22:22:08.916Z,11.05
2023-04-20T22:24:37.093Z,11.10
2023-04-20T22:27:05.363Z,11.14
2023-04-20T22:29:33.683Z,11.15
2023-04-20T22:32:01.700Z,11.14
2023-04-20T22:34:30.005Z,11.13
2023-04-20T22:36:58.385Z,11.11
2023-04-20T22:39:26.509Z,11.08
2023-04-20T22:41:54.522Z,11.07
2023-04-20T22:44:22.656Z,11.06
2023-04-20T22:46:51.358Z,11.03
2023-04-20T22:49:19.759Z,10.99
2023-04-20T22:51:48.196Z,10.94
2023-04-20T22:54:16.231Z,10.95
2023-04-20T22:56:44.248Z,11.00
2023-04-20T22:59:12.370Z,11.00
2023-04-20T23:01:40.568Z,10.96
2023-04-20T23:04:08.957Z,10.93
2023-04-20T23:06:37.983Z,10.88
2023-04-20T23:09:08.304Z,10.81
2023-04-20T23:11:39.004Z,10.74
2023-04-20T23:14:07.586Z,10.67
2023-04-20T23:16:35.659Z,10.61
2023-04-20T23:19:03.806Z,10.58
2023-04-20T23:21:32.971Z,10.62
2023-04-20T23:24:01.114Z,10.66
2023-04-20T23:26:29.407Z,10.67
2023-04-20T23:28:57.515Z,10.66
2023-04-20T23:31:25.897Z,10.64
2023-04-20T23:33:53.921Z,10.61
2023-04-20T23:36:21.935Z,10.58
2023-04-20T23:38:49.982Z,10.53
2023-04-20T23:41:18.184Z,10.49
2023-04-20T23:43:46.290Z,10.46
2023-04-20T23:46:15.245Z,10.48
2023-04-20T23:48:43.350Z,10.52
2023-04-20T23:51:11.444Z,10.55
2023-04-20T23:53:39.633Z,10.57
2023-04-20T23:56:07.980Z,10.58
2023-04-20T23:58:36.533Z,10.58
